sensor_id;sensor_type;location;lat;lon;timestamp;temperature;humidity
52849;DHT22;38714;53.180;5.812;2023-04-16T00:01:27;8.50;99.90
52849;DHT22;38714;53.180;5.812;2023-04-16T00:03:53;8.50;99.90
52849;DHT22;38714;53.180;5.812;2023-04-16T00:06:19;8.50;99.90
52849;DHT22;38714;53.180;5.812;2023-04-16T00:08:45;8.50;99.90
52849;DHT22;38714;53.180;5.812;2023-04-16T00:11:11;8.50;99.90
52849;DHT22;38714;53.180;5.812;2023-04-16T00:13:36;8.50;99.90
52849;DHT22;38714;53.180;5.812;2023-04-16T00:16:02;8.50;99.90
52849;DHT22;38714;53.180;5.812;2023-04-16T00:18:28;8.50;99.90
52849;DHT22;38714;53.180;5.812;2023-04-16T00:20:53;8.50;99.90
52849;DHT22;38714;53.180;5.812;2023-04-16T00:23:19;8.40;99.90
52849;DHT22;38714;53.180;5.812;2023-04-16T00:25:45;8.50;99.90
52849;DHT22;38714;53.180;5.812;2023-04-16T00:28:11;8.50;99.90
52849;DHT22;38714;53.180;5.812;2023-04-16T00:30:37;8.50;99.90
52849;DHT22;38714;53.180;5.812;2023-04-16T00:33:02;8.50;99.90
52849;DHT22;38714;53.180;5.812;2023-04-16T00:35:29;8.50;99.90
52849;DHT22;38714;53.180;5.812;2023-04-16T00:37:54;8.40;99.90
52849;DHT22;38714;53.180;5.812;2023-04-16T00:40:20;8.50;99.90
52849;DHT22;38714;53.180;5.812;2023-04-16T00:42:46;8.50;99.90
52849;DHT22;38714;53.180;5.812;2023-04-16T00:45:11;8.50;99.90
52849;DHT22;38714;53.180;5.812;2023-04-16T00:47:37;8.50;99.90
52849;DHT22;38714;53.180;5.812;2023-04-16T00:50:04;8.50;99.90
52849;DHT22;38714;53.180;5.812;2023-04-16T00:52:33;8.40;99.90
52849;DHT22;38714;53.180;5.812;2023-04-16T00:55:00;8.50;99.90
52849;DHT22;38714;53.180;5.812;2023-04-16T00:57:25;8.50;99.90
52849;DHT22;38714;53.180;5.812;2023-04-16T00:59:53;8.50;99.90
52849;DHT22;38714;53.180;5.812;2023-04-16T01:02:18;8.50;99.90
52849;DHT22;38714;53.180;5.812;2023-04-16T01:04:44;8.50;99.90
52849;DHT22;38714;53.180;5.812;2023-04-16T01:07:10;8.50;99.90
52849;DHT22;38714;53.180;5.812;2023-04-16T01:09:36;8.50;99.90
52849;DHT22;38714;53.180;5.812;2023-04-16T01:12:02;8.50;99.90
52849;DHT22;38714;53.180;5.812;2023-04-16T01:14:27;8.50;99.90
52849;DHT22;38714;53.180;5.812;2023-04-16T01:16:53;8.50;99.90
52849;DHT22;38714;53.180;5.812;2023-04-16T01:19:19;8.50;99.90
52849;DHT22;38714;53.180;5.812;2023-04-16T01:21:45;8.50;99.90
52849;DHT22;38714;53.180;5.812;2023-04-16T01:24:11;8.50;99.90
52849;DHT22;38714;53.180;5.812;2023-04-16T01:26:36;8.50;99.90
52849;DHT22;38714;53.180;5.812;2023-04-16T01:29:02;8.50;99.90
52849;DHT22;38714;53.180;5.812;2023-04-16T01:31:27;8.50;99.90
52849;DHT22;38714;53.180;5.812;2023-04-16T01:33:53;8.50;99.90
52849;DHT22;38714;53.180;5.812;2023-04-16T01:36:19;8.50;99.90
52849;DHT22;38714;53.180;5.812;2023-04-16T01:38:44;8.50;99.90
52849;DHT22;38714;53.180;5.812;2023-04-16T01:41:10;8.50;99.90
52849;DHT22;38714;53.180;5.812;2023-04-16T01:43:35;8.50;99.90
52849;DHT22;38714;53.180;5.812;2023-04-16T01:46:17;8.50;99.90
52849;DHT22;38714;53.180;5.812;2023-04-16T01:48:45;8.50;99.90
52849;DHT22;38714;53.180;5.812;2023-04-16T01:51:11;8.50;99.90
52849;DHT22;38714;53.180;5.812;2023-04-16T01:53:36;8.50;99.90
52849;DHT22;38714;53.180;5.812;2023-04-16T01:56:02;8.50;99.90
52849;DHT22;38714;53.180;5.812;2023-04-16T01:58:28;8.50;99.90
52849;DHT22;38714;53.180;5.812;2023-04-16T02:00:54;8.50;99.90
52849;DHT22;38714;53.180;5.812;2023-04-16T02:03:20;8.50;99.90
52849;DHT22;38714;53.180;5.812;2023-04-16T02:05:48;8.50;99.90
52849;DHT22;38714;53.180;5.812;2023-04-16T02:08:14;8.50;99.90
52849;DHT22;38714;53.180;5.812;2023-04-16T02:10:40;8.50;99.90
52849;DHT22;38714;53.180;5.812;2023-04-16T02:13:05;8.50;99.90
52849;DHT22;38714;53.180;5.812;2023-04-16T02:15:31;8.50;99.90
52849;DHT22;38714;53.180;5.812;2023-04-16T02:17:56;8.50;99.90
52849;DHT22;38714;53.180;5.812;2023-04-16T02:20:22;8.50;99.90
52849;DHT22;38714;53.180;5.812;2023-04-16T02:22:48;8.50;99.90
52849;DHT22;38714;53.180;5.812;2023-04-16T02:25:13;8.50;99.90
52849;DHT22;38714;53.180;5.812;2023-04-16T02:27:39;8.50;99.90
52849;DHT22;38714;53.180;5.812;2023-04-16T02:30:05;8.40;99.90
52849;DHT22;38714;53.180;5.812;2023-04-16T02:32:31;8.50;99.90
52849;DHT22;38714;53.180;5.812;2023-04-16T02:34:57;8.50;99.90
52849;DHT22;38714;53.180;5.812;2023-04-16T02:37:22;8.50;99.90
52849;DHT22;38714;53.180;5.812;2023-04-16T02:39:49;8.50;99.90
52849;DHT22;38714;53.180;5.812;2023-04-16T02:42:15;8.50;99.90
52849;DHT22;38714;53.180;5.812;2023-04-16T02:44:41;8.50;99.90
52849;DHT22;38714;53.180;5.812;2023-04-16T02:47:06;8.50;99.90
52849;DHT22;38714;53.180;5.812;2023-04-16T02:49:32;8.50;99.90
52849;DHT22;38714;53.180;5.812;2023-04-16T02:51:57;8.50;99.90
52849;DHT22;38714;53.180;5.812;2023-04-16T02:54:23;8.50;99.90
52849;DHT22;38714;53.180;5.812;2023-04-16T02:56:49;8.50;99.90
52849;DHT22;38714;53.180;5.812;2023-04-16T02:59:14;8.50;99.90
52849;DHT22;38714;53.180;5.812;2023-04-16T03:01:40;8.50;99.90
52849;DHT22;38714;53.180;5.812;2023-04-16T03:04:06;8.50;99.90
52849;DHT22;38714;53.180;5.812;2023-04-16T03:06:31;8.50;99.90
52849;DHT22;38714;53.180;5.812;2023-04-16T03:08:57;8.50;99.90
52849;DHT22;38714;53.180;5.812;2023-04-16T03:11:22;8.50;99.90
52849;DHT22;38714;53.180;5.812;2023-04-16T03:13:48;8.50;99.90
52849;DHT22;38714;53.180;5.812;2023-04-16T03:16:13;8.50;99.90
52849;DHT22;38714;53.180;5.812;2023-04-16T03:18:39;8.50;99.90
52849;DHT22;38714;53.180;5.812;2023-04-16T03:21:05;8.50;99.90
52849;DHT22;38714;53.180;5.812;2023-04-16T03:23:31;8.50;99.90
52849;DHT22;38714;53.180;5.812;2023-04-16T03:25:56;8.50;99.90
52849;DHT22;38714;53.180;5.812;2023-04-16T03:28:22;8.50;99.90
52849;DHT22;38714;53.180;5.812;2023-04-16T03:30:53;8.50;99.90
52849;DHT22;38714;53.180;5.812;2023-04-16T03:33:19;8.50;99.90
52849;DHT22;38714;53.180;5.812;2023-04-16T03:35:45;8.60;99.90
52849;DHT22;38714;53.180;5.812;2023-04-16T03:38:11;8.50;99.90
52849;DHT22;38714;53.180;5.812;2023-04-16T03:40:37;8.50;99.90
52849;DHT22;38714;53.180;5.812;2023-04-16T03:43:03;8.50;99.90
52849;DHT22;38714;53.180;5.812;2023-04-16T03:45:28;8.50;99.90
52849;DHT22;38714;53.180;5.812;2023-04-16T03:47:54;8.60;99.90
52849;DHT22;38714;53.180;5.812;2023-04-16T03:50:20;8.60;99.90
52849;DHT22;38714;53.180;5.812;2023-04-16T03:52:45;8.50;99.90
52849;DHT22;38714;53.180;5.812;2023-04-16T03:55:13;8.60;99.90
52849;DHT22;38714;53.180;5.812;2023-04-16T03:57:39;8.60;99.90
52849;DHT22;38714;53.180;5.812;2023-04-16T04:00:08;8.50;99.90
52849;DHT22;38714;53.180;5.812;2023-04-16T04:02:33;8.60;99.90
52849;DHT22;38714;53.180;5.812;2023-04-16T04:04:59;8.60;99.90
52849;DHT22;38714;53.180;5.812;2023-04-16T04:07:24;8.60;99.90
52849;DHT22;38714;53.180;5.812;2023-04-16T04:09:50;8.60;99.90
52849;DHT22;38714;53.180;5.812;2023-04-16T04:12:15;8.60;99.90
52849;DHT22;38714;53.180;5.812;2023-04-16T04:14:41;8.50;99.90
52849;DHT22;38714;53.180;5.812;2023-04-16T04:17:07;8.60;99.90
52849;DHT22;38714;53.180;5.812;2023-04-16T04:19:33;8.50;99.90
52849;DHT22;38714;53.180;5.812;2023-04-16T04:21:59;8.50;99.90
52849;DHT22;38714;53.180;5.812;2023-04-16T04:24:24;8.60;99.90
52849;DHT22;38714;53.180;5.812;2023-04-16T04:26:51;8.60;99.90
52849;DHT22;38714;53.180;5.812;2023-04-16T04:29:16;8.60;99.90
52849;DHT22;38714;53.180;5.812;2023-04-16T04:31:42;8.60;99.90
52849;DHT22;38714;53.180;5.812;2023-04-16T04:34:08;8.60;99.90
52849;DHT22;38714;53.180;5.812;2023-04-16T04:36:33;8.60;99.90
52849;DHT22;38714;53.180;5.812;2023-04-16T04:38:59;8.60;99.90
52849;DHT22;38714;53.180;5.812;2023-04-16T04:41:25;8.50;99.90
52849;DHT22;38714;53.180;5.812;2023-04-16T04:43:51;8.60;99.90
52849;DHT22;38714;53.180;5.812;2023-04-16T04:46:17;8.60;99.90
52849;DHT22;38714;53.180;5.812;2023-04-16T04:48:42;8.60;99.90
52849;DHT22;38714;53.180;5.812;2023-04-16T04:51:08;8.60;99.90
52849;DHT22;38714;53.180;5.812;2023-04-16T04:53:33;8.60;99.90
52849;DHT22;38714;53.180;5.812;2023-04-16T04:55:59;8.60;99.90
52849;DHT22;38714;53.180;5.812;2023-04-16T04:58:25;8.60;99.90
52849;DHT22;38714;53.180;5.812;2023-04-16T05:00:50;8.60;99.90
52849;DHT22;38714;53.180;5.812;2023-04-16T05:03:19;8.60;99.90
52849;DHT22;38714;53.180;5.812;2023-04-16T05:05:45;8.50;99.90
52849;DHT22;38714;53.180;5.812;2023-04-16T05:08:11;8.50;99.90
52849;DHT22;38714;53.180;5.812;2023-04-16T05:10:37;8.50;99.90
52849;DHT22;38714;53.180;5.812;2023-04-16T05:13:02;8.50;99.90
52849;DHT22;38714;53.180;5.812;2023-04-16T05:15:28;8.50;99.90
52849;DHT22;38714;53.180;5.812;2023-04-16T05:17:54;8.50;99.90
52849;DHT22;38714;53.180;5.812;2023-04-16T05:20:21;8.50;99.90
52849;DHT22;38714;53.180;5.812;2023-04-16T05:22:49;8.60;99.90
52849;DHT22;38714;53.180;5.812;2023-04-16T05:25:14;8.60;99.90
52849;DHT22;38714;53.180;5.812;2023-04-16T05:27:41;8.60;99.90
52849;DHT22;38714;53.180;5.812;2023-04-16T05:30:07;8.60;99.90
52849;DHT22;38714;53.180;5.812;2023-04-16T05:32:33;8.60;99.90
52849;DHT22;38714;53.180;5.812;2023-04-16T05:34:59;8.60;99.90
52849;DHT22;38714;53.180;5.812;2023-04-16T05:37:24;8.60;99.90
52849;DHT22;38714;53.180;5.812;2023-04-16T05:39:50;8.60;99.90
52849;DHT22;38714;53.180;5.812;2023-04-16T05:42:15;8.50;99.90
52849;DHT22;38714;53.180;5.812;2023-04-16T05:44:41;8.60;99.90
52849;DHT22;38714;53.180;5.812;2023-04-16T05:47:07;8.60;99.90
52849;DHT22;38714;53.180;5.812;2023-04-16T05:49:34;8.60;99.90
52849;DHT22;38714;53.180;5.812;2023-04-16T05:52:02;8.50;99.90
52849;DHT22;38714;53.180;5.812;2023-04-16T05:54:27;8.60;99.90
52849;DHT22;38714;53.180;5.812;2023-04-16T05:56:53;8.60;99.90
52849;DHT22;38714;53.180;5.812;2023-04-16T05:59:18;8.60;99.90
52849;DHT22;38714;53.180;5.812;2023-04-16T06:01:44;8.60;99.90
52849;DHT22;38714;53.180;5.812;2023-04-16T06:04:10;8.60;99.90
52849;DHT22;38714;53.180;5.812;2023-04-16T06:06:36;8.60;99.90
52849;DHT22;38714;53.180;5.812;2023-04-16T06:09:02;8.60;99.90
52849;DHT22;38714;53.180;5.812;2023-04-16T06:11:31;8.60;99.90
52849;DHT22;38714;53.180;5.812;2023-04-16T06:13:57;8.60;99.90
52849;DHT22;38714;53.180;5.812;2023-04-16T06:16:22;8.60;99.90
52849;DHT22;38714;53.180;5.812;2023-04-16T06:18:48;8.60;99.90
52849;DHT22;38714;53.180;5.812;2023-04-16T06:21:14;8.60;99.90
52849;DHT22;38714;53.180;5.812;2023-04-16T06:23:40;8.60;99.90
52849;DHT22;38714;53.180;5.812;2023-04-16T06:26:05;8.60;99.90
52849;DHT22;38714;53.180;5.812;2023-04-16T06:28:31;8.60;99.90
52849;DHT22;38714;53.180;5.812;2023-04-16T06:30:57;8.60;99.90
52849;DHT22;38714;53.180;5.812;2023-04-16T06:33:22;8.60;99.90
52849;DHT22;38714;53.180;5.812;2023-04-16T06:35:48;8.60;99.90
52849;DHT22;38714;53.180;5.812;2023-04-16T06:38:14;8.60;99.90
52849;DHT22;38714;53.180;5.812;2023-04-16T06:40:39;8.60;99.90
52849;DHT22;38714;53.180;5.812;2023-04-16T06:43:05;8.60;99.90
52849;DHT22;38714;53.180;5.812;2023-04-16T06:45:31;8.60;99.90
52849;DHT22;38714;53.180;5.812;2023-04-16T06:47:57;8.60;99.90
52849;DHT22;38714;53.180;5.812;2023-04-16T06:50:24;8.60;99.90
52849;DHT22;38714;53.180;5.812;2023-04-16T06:52:51;8.60;99.90
52849;DHT22;38714;53.180;5.812;2023-04-16T06:55:17;8.60;99.90
52849;DHT22;38714;53.180;5.812;2023-04-16T06:57:42;8.60;99.90
52849;DHT22;38714;53.180;5.812;2023-04-16T07:00:08;8.60;99.90
52849;DHT22;38714;53.180;5.812;2023-04-16T07:02:34;8.60;99.90
52849;DHT22;38714;53.180;5.812;2023-04-16T07:05:00;8.60;99.90
52849;DHT22;38714;53.180;5.812;2023-04-16T07:07:25;8.70;99.90
52849;DHT22;38714;53.180;5.812;2023-04-16T07:09:51;8.70;99.90
52849;DHT22;38714;53.180;5.812;2023-04-16T07:12:17;8.60;99.90
52849;DHT22;38714;53.180;5.812;2023-04-16T07:14:42;8.70;99.90
52849;DHT22;38714;53.180;5.812;2023-04-16T07:17:08;8.70;99.90
52849;DHT22;38714;53.180;5.812;2023-04-16T07:19:33;8.70;99.90
52849;DHT22;38714;53.180;5.812;2023-04-16T07:21:59;8.70;99.90
52849;DHT22;38714;53.180;5.812;2023-04-16T07:24:25;8.70;99.90
52849;DHT22;38714;53.180;5.812;2023-04-16T07:26:51;8.70;99.90
52849;DHT22;38714;53.180;5.812;2023-04-16T07:29:16;8.70;99.90
52849;DHT22;38714;53.180;5.812;2023-04-16T07:31:42;8.70;99.90
52849;DHT22;38714;53.180;5.812;2023-04-16T07:34:08;8.70;99.90
52849;DHT22;38714;53.180;5.812;2023-04-16T07:36:33;8.70;99.90
52849;DHT22;38714;53.180;5.812;2023-04-16T07:38:59;8.70;99.90
52849;DHT22;38714;53.180;5.812;2023-04-16T07:41:25;8.70;99.90
52849;DHT22;38714;53.180;5.812;2023-04-16T07:43:50;8.70;99.90
52849;DHT22;38714;53.180;5.812;2023-04-16T07:46:16;8.70;99.90
52849;DHT22;38714;53.180;5.812;2023-04-16T07:48:41;8.70;99.90
52849;DHT22;38714;53.180;5.812;2023-04-16T07:51:07;8.70;99.90
52849;DHT22;38714;53.180;5.812;2023-04-16T07:53:33;8.70;99.90
52849;DHT22;38714;53.180;5.812;2023-04-16T07:55:58;8.80;99.90
52849;DHT22;38714;53.180;5.812;2023-04-16T07:58:24;8.80;99.90
52849;DHT22;38714;53.180;5.812;2023-04-16T08:00:50;8.80;99.90
52849;DHT22;38714;53.180;5.812;2023-04-16T08:03:16;8.80;99.90
52849;DHT22;38714;53.180;5.812;2023-04-16T08:05:42;8.80;99.90
52849;DHT22;38714;53.180;5.812;2023-04-16T08:08:07;8.80;99.90
52849;DHT22;38714;53.180;5.812;2023-04-16T08:10:33;8.80;99.90
52849;DHT22;38714;53.180;5.812;2023-04-16T08:13:00;8.80;99.90
52849;DHT22;38714;53.180;5.812;2023-04-16T08:15:26;8.80;99.90
52849;DHT22;38714;53.180;5.812;2023-04-16T08:17:52;8.70;99.90
52849;DHT22;38714;53.180;5.812;2023-04-16T08:20:17;8.80;99.90
52849;DHT22;38714;53.180;5.812;2023-04-16T08:22:44;8.80;99.90
52849;DHT22;38714;53.180;5.812;2023-04-16T08:25:10;8.90;99.90
52849;DHT22;38714;53.180;5.812;2023-04-16T08:27:36;8.90;99.90
52849;DHT22;38714;53.180;5.812;2023-04-16T08:30:02;8.90;99.90
52849;DHT22;38714;53.180;5.812;2023-04-16T08:32:28;8.90;99.90
52849;DHT22;38714;53.180;5.812;2023-04-16T08:34:53;8.90;99.90
52849;DHT22;38714;53.180;5.812;2023-04-16T08:37:19;8.90;99.90
52849;DHT22;38714;53.180;5.812;2023-04-16T08:39:44;8.90;99.90
52849;DHT22;38714;53.180;5.812;2023-04-16T08:42:23;8.90;99.90
52849;DHT22;38714;53.180;5.812;2023-04-16T08:44:52;8.90;99.90
52849;DHT22;38714;53.180;5.812;2023-04-16T08:47:24;8.90;99.90
52849;DHT22;38714;53.180;5.812;2023-04-16T08:49:53;8.90;99.90
52849;DHT22;38714;53.180;5.812;2023-04-16T08:52:22;8.90;99.90
52849;DHT22;38714;53.180;5.812;2023-04-16T08:57:29;9.00;99.90
52849;DHT22;38714;53.180;5.812;2023-04-16T09:00:00;9.00;99.90
52849;DHT22;38714;53.180;5.812;2023-04-16T09:02:26;9.00;99.90
52849;DHT22;38714;53.180;5.812;2023-04-16T09:04:52;9.00;99.90
52849;DHT22;38714;53.180;5.812;2023-04-16T09:07:21;9.00;99.90
52849;DHT22;38714;53.180;5.812;2023-04-16T09:09:48;9.00;99.90
52849;DHT22;38714;53.180;5.812;2023-04-16T09:12:16;9.10;99.90
52849;DHT22;38714;53.180;5.812;2023-04-16T09:14:42;9.10;99.90
52849;DHT22;38714;53.180;5.812;2023-04-16T09:17:08;9.10;99.90
52849;DHT22;38714;53.180;5.812;2023-04-16T09:19:35;9.10;99.90
52849;DHT22;38714;53.180;5.812;2023-04-16T09:22:01;9.10;99.90
52849;DHT22;38714;53.180;5.812;2023-04-16T09:24:27;9.20;99.90
52849;DHT22;38714;53.180;5.812;2023-04-16T09:26:53;9.20;99.90
52849;DHT22;38714;53.180;5.812;2023-04-16T09:29:36;9.20;99.90
52849;DHT22;38714;53.180;5.812;2023-04-16T09:32:04;9.20;99.90
52849;DHT22;38714;53.180;5.812;2023-04-16T09:34:31;9.20;99.90
52849;DHT22;38714;53.180;5.812;2023-04-16T09:37:16;9.30;99.90
52849;DHT22;38714;53.180;5.812;2023-04-16T09:39:43;9.30;99.90
52849;DHT22;38714;53.180;5.812;2023-04-16T09:42:09;9.30;99.90
52849;DHT22;38714;53.180;5.812;2023-04-16T09:44:35;9.30;99.90
52849;DHT22;38714;53.180;5.812;2023-04-16T09:47:08;9.40;99.90
52849;DHT22;38714;53.180;5.812;2023-04-16T09:49:36;9.40;99.90
52849;DHT22;38714;53.180;5.812;2023-04-16T09:52:11;9.40;99.90
52849;DHT22;38714;53.180;5.812;2023-04-16T09:54:38;9.40;99.90
52849;DHT22;38714;53.180;5.812;2023-04-16T09:57:07;9.40;99.90
52849;DHT22;38714;53.180;5.812;2023-04-16T09:59:34;9.50;99.90
52849;DHT22;38714;53.180;5.812;2023-04-16T10:02:00;9.50;99.90
52849;DHT22;38714;53.180;5.812;2023-04-16T10:04:26;9.40;99.90
52849;DHT22;38714;53.180;5.812;2023-04-16T10:07:05;9.50;99.90
52849;DHT22;38714;53.180;5.812;2023-04-16T10:09:31;9.50;99.90
52849;DHT22;38714;53.180;5.812;2023-04-16T10:12:01;9.50;99.90
52849;DHT22;38714;53.180;5.812;2023-04-16T10:14:27;9.50;99.90
52849;DHT22;38714;53.180;5.812;2023-04-16T10:16:53;9.60;99.90
52849;DHT22;38714;53.180;5.812;2023-04-16T10:19:20;9.60;99.90
52849;DHT22;38714;53.180;5.812;2023-04-16T10:21:46;9.60;99.90
52849;DHT22;38714;53.180;5.812;2023-04-16T10:24:13;9.60;99.90
52849;DHT22;38714;53.180;5.812;2023-04-16T10:26:41;9.60;99.90
52849;DHT22;38714;53.180;5.812;2023-04-16T10:29:07;9.70;99.90
52849;DHT22;38714;53.180;5.812;2023-04-16T10:31:34;9.70;99.90
52849;DHT22;38714;53.180;5.812;2023-04-16T10:34:01;9.70;99.90
52849;DHT22;38714;53.180;5.812;2023-04-16T10:36:27;9.70;99.90
52849;DHT22;38714;53.180;5.812;2023-04-16T10:38:57;9.70;99.90
52849;DHT22;38714;53.180;5.812;2023-04-16T10:41:25;9.70;99.90
52849;DHT22;38714;53.180;5.812;2023-04-16T10:43:51;9.70;99.90
52849;DHT22;38714;53.180;5.812;2023-04-16T10:46:24;9.70;99.90
52849;DHT22;38714;53.180;5.812;2023-04-16T10:48:54;9.70;99.90
52849;DHT22;38714;53.180;5.812;2023-04-16T10:51:24;9.70;99.90
52849;DHT22;38714;53.180;5.812;2023-04-16T10:53:50;9.80;99.90
52849;DHT22;38714;53.180;5.812;2023-04-16T10:56:25;9.80;99.90
52849;DHT22;38714;53.180;5.812;2023-04-16T10:58:55;9.80;99.90
52849;DHT22;38714;53.180;5.812;2023-04-16T11:01:35;9.80;99.90
52849;DHT22;38714;53.180;5.812;2023-04-16T11:09:55;9.80;99.90
52849;DHT22;38714;53.180;5.812;2023-04-16T11:12:26;9.80;99.90
52849;DHT22;38714;53.180;5.812;2023-04-16T11:17:44;9.80;99.90
52849;DHT22;38714;53.180;5.812;2023-04-16T11:20:18;9.80;99.90
52849;DHT22;38714;53.180;5.812;2023-04-16T11:22:45;9.80;99.90
52849;DHT22;38714;53.180;5.812;2023-04-16T11:25:11;9.80;99.90
52849;DHT22;38714;53.180;5.812;2023-04-16T11:27:37;9.90;99.90
52849;DHT22;38714;53.180;5.812;2023-04-16T11:30:03;9.90;99.90
52849;DHT22;38714;53.180;5.812;2023-04-16T11:32:37;9.90;99.90
52849;DHT22;38714;53.180;5.812;2023-04-16T11:35:11;9.90;99.90
52849;DHT22;38714;53.180;5.812;2023-04-16T11:37:38;10.00;99.90
52849;DHT22;38714;53.180;5.812;2023-04-16T11:40:07;10.00;99.90
52849;DHT22;38714;53.180;5.812;2023-04-16T11:42:37;10.00;99.90
52849;DHT22;38714;53.180;5.812;2023-04-16T11:45:08;10.00;99.90
52849;DHT22;38714;53.180;5.812;2023-04-16T11:47:45;10.00;99.90
52849;DHT22;38714;53.180;5.812;2023-04-16T11:50:16;10.00;99.90
52849;DHT22;38714;53.180;5.812;2023-04-16T11:52:41;10.10;99.90
52849;DHT22;38714;53.180;5.812;2023-04-16T11:55:07;10.10;99.90
52849;DHT22;38714;53.180;5.812;2023-04-16T11:57:33;10.00;99.90
52849;DHT22;38714;53.180;5.812;2023-04-16T11:59:59;10.10;99.90
52849;DHT22;38714;53.180;5.812;2023-04-16T12:02:47;10.10;99.90
52849;DHT22;38714;53.180;5.812;2023-04-16T12:05:27;10.10;99.90
52849;DHT22;38714;53.180;5.812;2023-04-16T12:07:55;10.10;99.90
52849;DHT22;38714;53.180;5.812;2023-04-16T12:10:20;10.10;99.90
52849;DHT22;38714;53.180;5.812;2023-04-16T12:12:46;10.10;99.90
52849;DHT22;38714;53.180;5.812;2023-04-16T12:15:12;10.10;99.90
52849;DHT22;38714;53.180;5.812;2023-04-16T12:17:37;10.20;99.90
52849;DHT22;38714;53.180;5.812;2023-04-16T12:20:07;10.20;99.90
52849;DHT22;38714;53.180;5.812;2023-04-16T12:22:38;10.20;99.90
52849;DHT22;38714;53.180;5.812;2023-04-16T12:25:10;10.30;99.90
52849;DHT22;38714;53.180;5.812;2023-04-16T12:30:10;10.30;99.90
52849;DHT22;38714;53.180;5.812;2023-04-16T12:32:36;10.30;99.90
52849;DHT22;38714;53.180;5.812;2023-04-16T12:35:02;10.40;99.90
52849;DHT22;38714;53.180;5.812;2023-04-16T12:37:27;10.40;99.90
52849;DHT22;38714;53.180;5.812;2023-04-16T12:39:53;10.40;99.90
52849;DHT22;38714;53.180;5.812;2023-04-16T12:42:19;10.40;99.90
52849;DHT22;38714;53.180;5.812;2023-04-16T12:44:45;10.40;99.90
52849;DHT22;38714;53.180;5.812;2023-04-16T12:47:11;10.40;99.90
52849;DHT22;38714;53.180;5.812;2023-04-16T12:49:37;10.50;99.90
52849;DHT22;38714;53.180;5.812;2023-04-16T12:52:03;10.50;99.90
52849;DHT22;38714;53.180;5.812;2023-04-16T12:54:28;10.50;99.90
52849;DHT22;38714;53.180;5.812;2023-04-16T12:56:56;10.60;99.90
52849;DHT22;38714;53.180;5.812;2023-04-16T12:59:22;10.50;99.90
52849;DHT22;38714;53.180;5.812;2023-04-16T13:01:47;10.50;99.90
52849;DHT22;38714;53.180;5.812;2023-04-16T13:04:13;10.50;99.90
52849;DHT22;38714;53.180;5.812;2023-04-16T13:06:39;10.60;99.90
52849;DHT22;38714;53.180;5.812;2023-04-16T13:09:05;10.60;99.90
52849;DHT22;38714;53.180;5.812;2023-04-16T13:11:31;10.60;99.90
52849;DHT22;38714;53.180;5.812;2023-04-16T13:13:57;10.60;99.90
52849;DHT22;38714;53.180;5.812;2023-04-16T13:16:23;10.70;99.90
52849;DHT22;38714;53.180;5.812;2023-04-16T13:18:49;10.70;99.90
52849;DHT22;38714;53.180;5.812;2023-04-16T13:21:14;10.70;99.90
52849;DHT22;38714;53.180;5.812;2023-04-16T13:23:40;10.70;99.90
52849;DHT22;38714;53.180;5.812;2023-04-16T13:26:06;10.70;99.90
52849;DHT22;38714;53.180;5.812;2023-04-16T13:28:31;10.80;99.90
52849;DHT22;38714;53.180;5.812;2023-04-16T13:30:57;10.80;99.90
52849;DHT22;38714;53.180;5.812;2023-04-16T13:33:23;10.80;99.90
52849;DHT22;38714;53.180;5.812;2023-04-16T13:35:49;10.80;99.90
52849;DHT22;38714;53.180;5.812;2023-04-16T13:38:15;10.80;99.90
52849;DHT22;38714;53.180;5.812;2023-04-16T13:40:41;10.90;99.90
52849;DHT22;38714;53.180;5.812;2023-04-16T13:43:06;10.90;99.90
52849;DHT22;38714;53.180;5.812;2023-04-16T13:45:32;10.90;99.90
52849;DHT22;38714;53.180;5.812;2023-04-16T13:47:58;10.90;99.90
52849;DHT22;38714;53.180;5.812;2023-04-16T13:50:24;11.00;99.90
52849;DHT22;38714;53.180;5.812;2023-04-16T13:52:49;10.90;99.90
52849;DHT22;38714;53.180;5.812;2023-04-16T13:55:15;11.00;99.90
52849;DHT22;38714;53.180;5.812;2023-04-16T13:57:46;11.00;99.90
52849;DHT22;38714;53.180;5.812;2023-04-16T14:00:13;11.00;99.90
52849;DHT22;38714;53.180;5.812;2023-04-16T14:02:40;11.00;99.90
52849;DHT22;38714;53.180;5.812;2023-04-16T14:05:07;11.10;99.90
52849;DHT22;38714;53.180;5.812;2023-04-16T14:07:33;11.10;99.90
52849;DHT22;38714;53.180;5.812;2023-04-16T14:09:59;11.10;99.90
52849;DHT22;38714;53.180;5.812;2023-04-16T14:12:24;11.10;99.90
52849;DHT22;38714;53.180;5.812;2023-04-16T14:14:50;11.10;99.90
52849;DHT22;38714;53.180;5.812;2023-04-16T14:17:15;11.10;99.90
52849;DHT22;38714;53.180;5.812;2023-04-16T14:19:41;11.10;99.90
52849;DHT22;38714;53.180;5.812;2023-04-16T14:22:06;11.10;99.90
52849;DHT22;38714;53.180;5.812;2023-04-16T14:24:32;11.00;99.90
52849;DHT22;38714;53.180;5.812;2023-04-16T14:26:58;11.00;99.90
52849;DHT22;38714;53.180;5.812;2023-04-16T14:29:23;11.00;99.90
52849;DHT22;38714;53.180;5.812;2023-04-16T14:31:49;11.00;99.90
52849;DHT22;38714;53.180;5.812;2023-04-16T14:34:15;10.90;99.90
52849;DHT22;38714;53.180;5.812;2023-04-16T14:36:41;11.00;99.90
52849;DHT22;38714;53.180;5.812;2023-04-16T14:39:07;11.00;99.90
52849;DHT22;38714;53.180;5.812;2023-04-16T14:41:33;11.00;99.90
52849;DHT22;38714;53.180;5.812;2023-04-16T14:43:58;11.00;99.90
52849;DHT22;38714;53.180;5.812;2023-04-16T14:46:24;11.00;99.90
52849;DHT22;38714;53.180;5.812;2023-04-16T14:48:51;11.00;99.90
52849;DHT22;38714;53.180;5.812;2023-04-16T14:51:17;11.00;99.90
52849;DHT22;38714;53.180;5.812;2023-04-16T14:53:42;10.90;99.90
52849;DHT22;38714;53.180;5.812;2023-04-16T14:56:09;11.00;99.90
52849;DHT22;38714;53.180;5.812;2023-04-16T14:58:35;11.00;99.90
52849;DHT22;38714;53.180;5.812;2023-04-16T15:01:01;11.00;99.90
52849;DHT22;38714;53.180;5.812;2023-04-16T15:03:29;11.00;99.90
52849;DHT22;38714;53.180;5.812;2023-04-16T15:05:55;11.00;99.90
52849;DHT22;38714;53.180;5.812;2023-04-16T15:08:21;11.00;99.90
52849;DHT22;38714;53.180;5.812;2023-04-16T15:10:47;11.00;99.90
52849;DHT22;38714;53.180;5.812;2023-04-16T15:13:13;11.00;99.90
52849;DHT22;38714;53.180;5.812;2023-04-16T15:15:39;11.00;99.90
52849;DHT22;38714;53.180;5.812;2023-04-16T15:18:05;11.00;99.90
52849;DHT22;38714;53.180;5.812;2023-04-16T15:20:30;11.00;99.90
52849;DHT22;38714;53.180;5.812;2023-04-16T15:22:56;11.00;99.90
52849;DHT22;38714;53.180;5.812;2023-04-16T15:25:21;11.00;99.90
52849;DHT22;38714;53.180;5.812;2023-04-16T15:27:48;11.00;99.90
52849;DHT22;38714;53.180;5.812;2023-04-16T15:30:14;11.00;99.90
52849;DHT22;38714;53.180;5.812;2023-04-16T15:32:40;10.90;99.90
52849;DHT22;38714;53.180;5.812;2023-04-16T15:35:05;10.90;99.90
52849;DHT22;38714;53.180;5.812;2023-04-16T15:37:31;10.90;99.90
52849;DHT22;38714;53.180;5.812;2023-04-16T15:39:57;10.90;99.90
52849;DHT22;38714;53.180;5.812;2023-04-16T15:42:23;10.90;99.90
52849;DHT22;38714;53.180;5.812;2023-04-16T15:44:48;10.90;99.90
52849;DHT22;38714;53.180;5.812;2023-04-16T15:47:14;10.90;99.90
52849;DHT22;38714;53.180;5.812;2023-04-16T15:49:40;10.90;99.90
52849;DHT22;38714;53.180;5.812;2023-04-16T15:52:06;10.90;99.90